METAR AND TAF INFORMATION
METAR FOR EKVG
ADDS - METARS form results

(0945 UTC 05 July 2020)
Data provider http://aviationweather.gov/metar/data/
 
METAR text: EKVG 050920Z AUTO 05003KT 9999 -DZ BKN014/// 11/08 Q0993
Conditions at: EKVG (SORVAAG/VAGAR , DK) observed 0920 UTC 05 July 2020
Temperature: 11.0°C (52°F)
Dewpoint: 8.0°C (46°F) [RH = 82%]
Pressure (altimeter): 29.32 inches Hg (993.0 mb)
Winds: from the NE (50 degrees) at 3 MPH (3 knots; 1.5 m/s)
Visibility: 6 or more miles (10+ km)
Ceiling: 1400 feet AGL
Clouds: broken clouds at 1400 feet AGL
Weather: -DZ  (light drizzle)

METAR text: EKVG 050850Z AUTO 05005KT 9999 -DZ BKN014/// 10/08 Q0993
Conditions at: EKVG (SORVAAG/VAGAR , DK) observed 0850 UTC 05 July 2020
Temperature: 10.0°C (50°F)
Dewpoint: 8.0°C (46°F) [RH = 87%]
Pressure (altimeter): 29.32 inches Hg (993.0 mb)
Winds: from the NE (50 degrees) at 6 MPH (5 knots; 2.6 m/s)
Visibility: 6 or more miles (10+ km)
Ceiling: 1400 feet AGL
Clouds: broken clouds at 1400 feet AGL
Weather: -DZ  (light drizzle)

Forecast for: EKVG (SORVAAG/VAGAR , DK)
Text: TAF EKVG 050757Z 0509/0518 07010KT 9999 -RA BKN018
Forecast period: 0900 to 1500 UTC 05 July 2020
Forecast type: FROM: standard forecast or significant change
Winds: from the ENE (70 degrees) at 12 MPH (10 knots; 5.1 m/s)
Visibility: 6 or more miles 10+ km)
Ceiling: 1800 feet AGL
Clouds: broken clouds at 1800 feet AGL
Weather: -RA  (light rain)
Text: BECMG 0515/0517 01013KT
Forecast period: 1500 to 1800 UTC 05 July 2020
Forecast type: BECOMING: Conditions expected to become as follows by 1700 UTC 05 July 2020
Winds: from the N (10 degrees) at 15 MPH (13 knots; 6.7 m/s)
Visibility: 6 or more miles 10+ km)
Ceiling: 1800 feet AGL
Clouds: broken clouds at 1800 feet AGL
Weather: -RA  (light rain)

 AIRPORT MAP

 RUNWAY INFORMATION
Runway 13 Runway length 5902 ft Runway width 98 ft
Runway elevation 268 ft Runway displaced threshold 0 ft Runway heading 118
Runway 31 Runway length 5902 ft Runway width 98 ft
Runway elevation 252 ft Runway displaced threshold 0 ft Runway heading 298

 AIRPORT FREQUENCIES
Type AFIS Name AFIS Frequency 124.85 MHZ

 AIRPORT NEAR NAVIGATION AIDS
Type NDB Name Myggenes Frequency 337 KHZ
Type NDB Name Nolso Frequency 404 KHZ
Type NDB Name Vagar Frequency 348 KHZ